createdAt,value
2018-08-25T00:00:17.528Z,100605.06
2018-08-25T00:02:45.894Z,100600.22
2018-08-25T00:05:14.245Z,100600.72
2018-08-25T00:07:42.640Z,100596.64
2018-08-25T00:10:11.040Z,100596.77
2018-08-25T00:12:39.483Z,100601.57
2018-08-25T00:15:08.140Z,100592.44
2018-08-25T00:17:36.514Z,100590.44
2018-08-25T00:20:04.898Z,100585.77
2018-08-25T00:22:33.466Z,100587.49
2018-08-25T00:25:02.060Z,100582.92
2018-08-25T00:27:30.394Z,100589.93
2018-08-25T00:29:58.744Z,100579.80
2018-08-25T00:32:27.148Z,100581.39
2018-08-25T00:34:55.515Z,100584.95
2018-08-25T00:37:23.861Z,100588.29
2018-08-25T00:39:52.202Z,100590.73
2018-08-25T00:42:20.548Z,100590.37
2018-08-25T00:44:48.892Z,100598.52
2018-08-25T00:47:17.240Z,100596.80
2018-08-25T00:49:45.568Z,100590.24
2018-08-25T00:52:13.946Z,100587.52
2018-08-25T00:54:42.330Z,100587.38
2018-08-25T00:57:10.660Z,100592.89
2018-08-25T00:59:39.015Z,100591.39
2018-08-25T01:02:07.380Z,100588.45
2018-08-25T01:04:35.719Z,100597.22
2018-08-25T01:07:04.071Z,100603.45
2018-08-25T01:09:32.429Z,100608.86
2018-08-25T01:12:00.808Z,100604.92
2018-08-25T01:14:29.204Z,100600.45
2018-08-25T01:16:57.584Z,100605.23
2018-08-25T01:19:25.935Z,100604.13
2018-08-25T01:21:54.287Z,100602.45
2018-08-25T01:24:22.924Z,100600.78
2018-08-25T01:26:51.337Z,100605.44
2018-08-25T01:29:19.684Z,100603.52
2018-08-25T01:31:48.031Z,100614.06
2018-08-25T01:34:16.387Z,100604.52
2018-08-25T01:36:44.752Z,100603.99
2018-08-25T01:39:13.112Z,100616.50
2018-08-25T01:41:41.444Z,100614.50
2018-08-25T01:44:09.818Z,100605.50
2018-08-25T01:46:38.204Z,100609.70
2018-08-25T01:49:06.566Z,100603.66
2018-08-25T01:51:34.903Z,100593.80
2018-08-25T01:54:03.272Z,100591.41
2018-08-25T01:56:31.615Z,100594.33
2018-08-25T01:59:00.040Z,100599.13
2018-08-25T02:01:28.369Z,100601.13
2018-08-25T02:03:56.756Z,100599.10
2018-08-25T02:06:25.135Z,100584.16
2018-08-25T02:08:53.488Z,100580.89
2018-08-25T02:11:21.852Z,100581.52
2018-08-25T02:13:50.202Z,100577.14
2018-08-25T02:16:18.530Z,100580.38
2018-08-25T02:18:46.886Z,100576.52
2018-08-25T02:21:15.267Z,100576.16
2018-08-25T02:23:43.671Z,100571.34
2018-08-25T02:26:11.999Z,100574.30
2018-08-25T02:28:40.339Z,100578.70
2018-08-25T02:31:08.717Z,100578.88
2018-08-25T02:33:37.100Z,100579.53
2018-08-25T02:36:05.463Z,100578.67
2018-08-25T02:38:33.802Z,100576.13
2018-08-25T02:41:02.168Z,100569.98
2018-08-25T02:43:30.513Z,100565.70
2018-08-25T02:45:58.836Z,100562.13
2018-08-25T02:48:27.216Z,100560.56
2018-08-25T02:50:55.580Z,100555.89
2018-08-25T02:53:23.922Z,100555.36
2018-08-25T02:55:52.265Z,100568.69
2018-08-25T02:58:20.615Z,100568.91
2018-08-25T03:00:48.959Z,100566.56
2018-08-25T03:03:17.271Z,100562.78
2018-08-25T03:05:45.618Z,100564.14
2018-08-25T03:08:14.083Z,100563.06
2018-08-25T03:10:42.446Z,100559.55
2018-08-25T03:13:10.788Z,100562.50
2018-08-25T03:15:39.130Z,100559.00
2018-08-25T03:18:07.457Z,100556.01
2018-08-25T03:20:35.823Z,100555.89
2018-08-25T03:23:04.174Z,100554.32
2018-08-25T03:25:32.521Z,100550.09
2018-08-25T03:28:01.099Z,100548.01
2018-08-25T03:30:29.446Z,100548.38
2018-08-25T03:32:57.788Z,100537.78
2018-08-25T03:35:26.159Z,100534.06
2018-08-25T03:37:54.492Z,100530.24
2018-08-25T03:40:22.856Z,100530.24
2018-08-25T03:42:51.232Z,100523.41
2018-08-25T03:45:19.582Z,100528.94
2018-08-25T03:47:47.943Z,100533.91
2018-08-25T03:50:16.307Z,100541.29
2018-08-25T03:52:44.657Z,100543.62
2018-08-25T03:55:13.022Z,100542.80
2018-08-25T03:57:41.377Z,100547.11
2018-08-25T04:00:10.130Z,100540.09
2018-08-25T04:02:38.474Z,100531.59
2018-08-25T04:05:06.982Z,100526.55
2018-08-25T04:07:35.337Z,100523.93
2018-08-25T04:10:03.720Z,100516.54
2018-08-25T04:12:32.058Z,100519.87
2018-08-25T04:15:00.958Z,100517.89
2018-08-25T04:17:29.200Z,100525.04
2018-08-25T04:19:57.560Z,100522.91
2018-08-25T04:22:25.924Z,100523.06
2018-08-25T04:24:54.298Z,100518.84
2018-08-25T04:27:22.643Z,100519.25
2018-08-25T04:29:51.018Z,100518.36
2018-08-25T04:32:19.391Z,100518.48
2018-08-25T04:34:47.748Z,100522.55
2018-08-25T04:37:16.091Z,100518.60
2018-08-25T04:39:44.472Z,100526.02
2018-08-25T04:42:12.790Z,100521.96
2018-08-25T04:44:41.159Z,100522.97
2018-08-25T04:47:09.558Z,100511.83
2018-08-25T04:49:37.888Z,100508.53
2018-08-25T04:52:06.362Z,100513.62
2018-08-25T04:54:34.700Z,100516.38
2018-08-25T04:57:03.021Z,100513.50
2018-08-25T04:59:31.378Z,100513.79
2018-08-25T05:01:59.805Z,100507.67
2018-08-25T05:04:28.119Z,100508.04
2018-08-25T05:06:56.469Z,100505.70
2018-08-25T05:09:24.829Z,100515.02
2018-08-25T05:11:53.155Z,100508.07
2018-08-25T05:14:21.504Z,100511.77
2018-08-25T05:16:49.849Z,100508.31
2018-08-25T05:19:18.192Z,100512.91
2018-08-25T05:21:46.549Z,100518.11
2018-08-25T05:24:14.888Z,100521.19
2018-08-25T05:26:43.220Z,100514.85
2018-08-25T05:29:11.607Z,100522.98
2018-08-25T05:31:39.959Z,100521.13
2018-08-25T05:34:08.297Z,100517.22
2018-08-25T05:36:36.645Z,100512.23
2018-08-25T05:39:07.552Z,100506.17
2018-08-25T05:41:35.965Z,100513.47
2018-08-25T05:44:04.964Z,100518.82
2018-08-25T05:46:33.333Z,100515.98
2018-08-25T05:49:02.091Z,100513.12
2018-08-25T05:51:30.435Z,100509.95
2018-08-25T05:53:58.812Z,100519.13
2018-08-25T05:56:27.571Z,100510.16
2018-08-25T05:58:55.939Z,100512.16
2018-08-25T06:01:24.259Z,100513.44
2018-08-25T06:03:52.614Z,100508.91
2018-08-25T06:06:20.952Z,100509.31
2018-08-25T06:08:49.293Z,100500.41
2018-08-25T06:11:17.636Z,100506.13
2018-08-25T06:13:45.984Z,100513.30
2018-08-25T06:16:14.355Z,100507.73
2018-08-25T06:18:42.691Z,100510.57
2018-08-25T06:21:11.087Z,100506.05
2018-08-25T06:23:39.434Z,100504.55
2018-08-25T06:26:07.796Z,100498.05
2018-08-25T06:28:36.147Z,100498.28
2018-08-25T06:31:05.202Z,100498.02
2018-08-25T06:33:33.528Z,100494.34
2018-08-25T06:36:02.005Z,100500.64
2018-08-25T06:38:30.329Z,100496.12
2018-08-25T06:40:58.668Z,100492.45
2018-08-25T06:43:27.043Z,100487.69
2018-08-25T06:46:00.680Z,100491.77
2018-08-25T06:48:29.047Z,100497.46
2018-08-25T06:50:57.472Z,100501.58
2018-08-25T06:53:25.878Z,100507.50
2018-08-25T06:55:54.199Z,100503.80
2018-08-25T06:58:22.580Z,100512.16
2018-08-25T07:00:51.537Z,100504.87
2018-08-25T07:03:20.042Z,100512.77
2018-08-25T07:05:48.409Z,100503.23
2018-08-25T07:08:16.772Z,100503.86
2018-08-25T07:10:45.224Z,100502.98
2018-08-25T07:13:13.650Z,100511.47
2018-08-25T07:15:42.047Z,100514.80
2018-08-25T07:18:10.798Z,100518.21
2018-08-25T07:20:39.171Z,100514.35
2018-08-25T07:23:07.553Z,100518.38
2018-08-25T07:25:36.147Z,100517.87
2018-08-25T07:28:04.539Z,100522.86
2018-08-25T07:30:33.024Z,100523.06
2018-08-25T07:33:01.583Z,100520.19
2018-08-25T07:35:30.038Z,100522.39
2018-08-25T07:37:58.460Z,100519.47
2018-08-25T07:40:26.823Z,100513.33
2018-08-25T07:42:55.189Z,100515.40
2018-08-25T07:45:23.963Z,100512.17
2018-08-25T07:47:52.549Z,100511.43
2018-08-25T07:50:21.003Z,100510.30
2018-08-25T07:52:49.404Z,100506.27
2018-08-25T07:55:17.747Z,100505.71
2018-08-25T07:57:46.180Z,100499.69
2018-08-25T08:00:14.536Z,100498.06
2018-08-25T08:02:42.925Z,100500.31
2018-08-25T08:05:11.275Z,100500.03
2018-08-25T08:07:39.664Z,100492.98
2018-08-25T08:10:08.058Z,100491.03
2018-08-25T08:12:36.437Z,100483.78
2018-08-25T08:15:04.820Z,100488.59
2018-08-25T08:17:33.195Z,100479.75
2018-08-25T08:20:01.552Z,100487.58
2018-08-25T08:22:29.955Z,100491.25
2018-08-25T08:24:58.360Z,100495.41
2018-08-25T08:27:26.770Z,100493.88
2018-08-25T08:29:58.843Z,100490.73
2018-08-25T08:32:27.402Z,100481.27
2018-08-25T08:34:55.814Z,100485.31
2018-08-25T08:37:24.245Z,100473.33
2018-08-25T08:39:52.649Z,100475.19
2018-08-25T08:42:21.180Z,100481.19
2018-08-25T08:44:49.523Z,100476.92
2018-08-25T08:47:18.083Z,100477.42
2018-08-25T08:49:46.908Z,100468.73
2018-08-25T08:52:14.805Z,100475.31
2018-08-25T08:54:43.174Z,100478.56
2018-08-25T08:57:11.563Z,100474.27
2018-08-25T08:59:39.949Z,100457.86
2018-08-25T09:02:08.343Z,100458.44
2018-08-25T09:04:36.692Z,100454.47
2018-08-25T09:07:05.222Z,100453.25
2018-08-25T09:09:33.654Z,100452.64
2018-08-25T09:12:02.345Z,100440.25
2018-08-25T09:14:31.594Z,100445.92
2018-08-25T09:16:59.992Z,100441.48
2018-08-25T09:19:28.662Z,100436.08
2018-08-25T09:21:57.695Z,100428.77
2018-08-25T09:24:26.112Z,100425.25
2018-08-25T09:26:54.489Z,100426.52
2018-08-25T09:29:22.855Z,100410.77
2018-08-25T09:31:51.274Z,100418.88
2018-08-25T09:34:20.172Z,100408.62
2018-08-25T09:36:48.724Z,100404.39
2018-08-25T09:39:16.968Z,100402.36
2018-08-25T09:41:45.390Z,100392.39
2018-08-25T09:44:13.737Z,100396.48
2018-08-25T09:46:42.108Z,100395.16
2018-08-25T09:49:10.451Z,100391.41
2018-08-25T09:51:38.832Z,100391.50
2018-08-25T09:54:07.244Z,100387.22
2018-08-25T09:56:35.590Z,100382.02
2018-08-25T09:59:04.038Z,100367.74
2018-08-25T10:01:33.259Z,100373.16
2018-08-25T10:04:02.055Z,100369.50
2018-08-25T10:06:30.416Z,100373.44
2018-08-25T10:08:59.352Z,100365.77
2018-08-25T10:11:27.707Z,100371.92
2018-08-25T10:13:56.192Z,100363.67
2018-08-25T10:16:24.624Z,100366.66
2018-08-25T10:18:52.979Z,100358.88
2018-08-25T10:21:21.361Z,100355.39
2018-08-25T10:23:49.706Z,100353.80
2018-08-25T10:26:18.087Z,100355.33
2018-08-25T10:28:46.464Z,100352.05
2018-08-25T10:31:14.840Z,100352.11
2018-08-25T10:33:43.200Z,100344.41
2018-08-25T10:36:11.568Z,100339.63
2018-08-25T10:38:39.912Z,100341.23
2018-08-25T10:41:08.322Z,100349.88
2018-08-25T10:43:37.127Z,100346.73
2018-08-25T10:46:05.515Z,100348.50
2018-08-25T10:48:33.894Z,100346.53
2018-08-25T10:51:02.284Z,100335.52
2018-08-25T10:53:30.741Z,100329.70
2018-08-25T10:55:59.114Z,100336.34
2018-08-25T10:58:27.460Z,100329.76
2018-08-25T11:00:55.889Z,100332.28
2018-08-25T11:03:24.247Z,100331.39
2018-08-25T11:05:52.627Z,100336.05
2018-08-25T11:08:21.010Z,100340.70
2018-08-25T11:10:49.408Z,100343.67
2018-08-25T11:13:17.803Z,100346.00
2018-08-25T11:15:46.172Z,100343.66
2018-08-25T11:18:14.602Z,100351.22
2018-08-25T11:20:43.106Z,100342.94
2018-08-25T11:23:11.998Z,100345.41
2018-08-25T11:25:41.453Z,100337.02
2018-08-25T11:28:09.876Z,100338.15
2018-08-25T11:30:38.367Z,100332.23
2018-08-25T11:33:07.469Z,100319.80
2018-08-25T11:35:35.847Z,100316.19
2018-08-25T11:38:04.225Z,100310.77
2018-08-25T11:40:32.626Z,100310.80
2018-08-25T11:43:01.005Z,100296.10
2018-08-25T11:45:29.428Z,100291.64
2018-08-25T11:47:57.793Z,100295.73
2018-08-25T11:50:26.184Z,100295.05
2018-08-25T11:52:54.548Z,100291.20
2018-08-25T11:55:22.967Z,100295.34
2018-08-25T11:57:51.622Z,100295.70
2018-08-25T12:00:20.057Z,100296.31
2018-08-25T12:02:49.183Z,100293.30
2018-08-25T12:05:17.580Z,100298.33
2018-08-25T12:07:45.916Z,100306.16
2018-08-25T12:10:14.339Z,100313.38
2018-08-25T12:12:42.680Z,100305.19
2018-08-25T12:15:11.337Z,100305.02
2018-08-25T12:17:39.814Z,100311.57
2018-08-25T12:20:08.212Z,100305.03
2018-08-25T12:22:36.645Z,100304.56
2018-08-25T12:25:05.263Z,100312.48
2018-08-25T12:27:34.456Z,100306.16
2018-08-25T12:30:02.896Z,100313.91
2018-08-25T12:32:31.287Z,100322.06
2018-08-25T12:35:00.174Z,100324.23
2018-08-25T12:37:28.622Z,100326.26
2018-08-25T12:39:57.003Z,100333.97
2018-08-25T12:42:25.417Z,100329.28
2018-08-25T12:44:53.894Z,100337.34
2018-08-25T12:47:26.440Z,100341.13
2018-08-25T12:49:56.251Z,100347.48
2018-08-25T12:52:24.666Z,100341.77
2018-08-25T12:54:53.048Z,100363.77
2018-08-25T12:57:21.900Z,100377.23
2018-08-25T12:59:50.352Z,100382.61
2018-08-25T13:02:18.748Z,100390.91
2018-08-25T13:04:47.675Z,100394.41
2018-08-25T13:07:16.248Z,100405.59
2018-08-25T13:09:45.711Z,100403.86
2018-08-25T13:12:14.424Z,100409.30
2018-08-25T13:14:43.357Z,100414.50
2018-08-25T13:17:11.735Z,100422.09
2018-08-25T13:19:40.075Z,100425.17
2018-08-25T13:22:08.975Z,100420.71
2018-08-25T13:24:37.387Z,100426.09
2018-08-25T13:27:06.350Z,100431.36
2018-08-25T13:29:34.758Z,100440.99
2018-08-25T13:32:03.787Z,100440.23
2018-08-25T13:34:32.700Z,100442.66
2018-08-25T13:37:01.084Z,100440.69
2018-08-25T13:39:29.500Z,100439.83
2018-08-25T13:41:58.032Z,100439.23
2018-08-25T13:44:26.467Z,100439.31
2018-08-25T13:46:54.802Z,100443.78
2018-08-25T13:49:23.182Z,100439.45
2018-08-25T13:51:51.559Z,100443.81
2018-08-25T13:54:20.015Z,100443.20
2018-08-25T13:56:48.916Z,100439.70
2018-08-25T13:59:17.353Z,100440.84
2018-08-25T14:01:46.286Z,100434.21
2018-08-25T14:04:14.862Z,100436.91
2018-08-25T14:06:43.272Z,100440.63
2018-08-25T14:09:11.761Z,100433.19
2018-08-25T14:11:40.380Z,100438.62
2018-08-25T14:14:08.753Z,100434.19
2018-08-25T14:16:37.142Z,100434.80
2018-08-25T14:19:05.526Z,100434.22
2018-08-25T14:21:34.140Z,100430.61
2018-08-25T14:24:02.583Z,100421.34
2018-08-25T14:26:31.200Z,100423.70
2018-08-25T14:28:59.722Z,100412.71
2018-08-25T14:31:28.182Z,100405.78
2018-08-25T14:33:56.567Z,100413.19
2018-08-25T14:36:24.982Z,100412.94
2018-08-25T14:38:54.019Z,100403.85
2018-08-25T14:41:22.802Z,100405.71
2018-08-25T14:43:51.280Z,100406.22
2018-08-25T14:46:19.634Z,100412.52
2018-08-25T14:48:48.520Z,100407.68
2018-08-25T14:51:16.904Z,100406.17
2018-08-25T14:53:46.081Z,100408.78
2018-08-25T14:56:14.519Z,100413.86
2018-08-25T14:58:43.407Z,100407.67
2018-08-25T15:01:11.896Z,100398.02
2018-08-25T15:03:40.369Z,100407.02
2018-08-25T15:06:09.288Z,100402.08
2018-08-25T15:08:37.741Z,100398.61
2018-08-25T15:11:07.148Z,100404.45
2018-08-25T15:13:35.692Z,100399.02
2018-08-25T15:16:04.061Z,100400.73
2018-08-25T15:18:32.506Z,100399.27
2018-08-25T15:21:01.480Z,100397.16
2018-08-25T15:23:30.084Z,100401.02
2018-08-25T15:25:58.546Z,100397.95
2018-08-25T15:28:26.957Z,100399.70
2018-08-25T15:30:55.509Z,100395.12
2018-08-25T15:33:23.989Z,100389.94
2018-08-25T15:35:52.432Z,100382.99
2018-08-25T15:38:20.846Z,100398.45
2018-08-25T15:40:49.844Z,100392.41
2018-08-25T15:43:18.835Z,100391.91
2018-08-25T15:45:47.282Z,100407.47
2018-08-25T15:48:15.798Z,100402.17
2018-08-25T15:50:44.248Z,100410.58
2018-08-25T15:53:12.727Z,100404.89
2018-08-25T15:55:41.650Z,100419.48
2018-08-25T15:58:10.034Z,100413.08
2018-08-25T16:00:38.430Z,100418.27
2018-08-25T16:03:06.847Z,100428.17
2018-08-25T16:05:37.763Z,100432.75
2018-08-25T16:08:07.439Z,100433.33
2018-08-25T16:10:35.844Z,100428.39
2018-08-25T16:13:05.429Z,100437.80
2018-08-25T16:15:33.814Z,100442.37
2018-08-25T16:18:02.212Z,100447.83
2018-08-25T16:20:30.630Z,100452.53
2018-08-25T16:22:59.050Z,100459.82
2018-08-25T16:25:27.520Z,100460.45
2018-08-25T16:27:55.929Z,100463.30
2018-08-25T16:30:24.864Z,100462.20
2018-08-25T16:32:53.782Z,100469.85
2018-08-25T16:35:22.176Z,100469.98
2018-08-25T16:37:50.591Z,100466.63
2018-08-25T16:40:19.049Z,100466.88
2018-08-25T16:42:47.629Z,100477.51
2018-08-25T16:45:16.345Z,100464.37
2018-08-25T16:47:44.775Z,100476.86
2018-08-25T16:50:13.773Z,100476.60
2018-08-25T16:52:42.171Z,100473.89
2018-08-25T16:55:10.625Z,100477.34
2018-08-25T16:57:39.008Z,100482.75
2018-08-25T17:00:07.765Z,100479.42
2018-08-25T17:02:37.373Z,100474.75
2018-08-25T17:05:05.849Z,100478.56
2018-08-25T17:07:34.802Z,100475.00
2018-08-25T17:10:03.284Z,100479.77
2018-08-25T17:12:31.746Z,100485.80
2018-08-25T17:15:00.434Z,100485.04
2018-08-25T17:17:28.912Z,100493.58
2018-08-25T17:19:57.321Z,100488.25
2018-08-25T17:22:25.769Z,100490.46
2018-08-25T17:24:54.110Z,100496.48
2018-08-25T17:27:22.525Z,100493.41
2018-08-25T17:29:51.806Z,100492.14
2018-08-25T17:32:20.313Z,100494.80
2018-08-25T17:34:48.724Z,100492.72
2018-08-25T17:37:17.131Z,100491.27
2018-08-25T17:39:45.681Z,100489.51
2018-08-25T17:42:14.092Z,100490.73
2018-08-25T17:44:43.029Z,100496.64
2018-08-25T17:47:11.532Z,100495.28
2018-08-25T17:49:39.991Z,100505.85
2018-08-25T17:52:08.412Z,100506.45
2018-08-25T17:54:36.856Z,100516.38
2018-08-25T17:57:05.300Z,100518.73
2018-08-25T17:59:33.712Z,100521.30
2018-08-25T18:02:02.191Z,100528.79
2018-08-25T18:04:30.631Z,100529.59
2018-08-25T18:06:59.032Z,100531.72
2018-08-25T18:09:27.601Z,100538.44
2018-08-25T18:11:55.970Z,100535.84
2018-08-25T18:14:24.393Z,100547.41
2018-08-25T18:16:52.772Z,100542.48
2018-08-25T18:19:21.243Z,100548.83
2018-08-25T18:21:49.613Z,100559.44
2018-08-25T18:24:18.961Z,100561.87
2018-08-25T18:26:47.414Z,100570.05
2018-08-25T18:29:15.815Z,100573.75
2018-08-25T18:31:44.265Z,100571.53
2018-08-25T18:34:12.653Z,100578.33
2018-08-25T18:36:41.054Z,100584.95
2018-08-25T18:39:11.796Z,100583.59
2018-08-25T18:41:40.221Z,100589.59
2018-08-25T18:44:08.590Z,100593.28
2018-08-25T18:46:36.967Z,100596.86
2018-08-25T18:49:05.381Z,100603.43
2018-08-25T18:51:33.722Z,100608.77
2018-08-25T18:54:02.123Z,100608.52
2018-08-25T18:56:30.487Z,100605.20
2018-08-25T18:58:59.028Z,100611.06
2018-08-25T19:01:27.504Z,100611.59
2018-08-25T19:03:55.867Z,100618.86
2018-08-25T19:06:24.234Z,100616.84
2018-08-25T19:08:52.585Z,100620.33
2018-08-25T19:11:21.260Z,100617.38
2018-08-25T19:13:49.954Z,100631.89
2018-08-25T19:16:18.384Z,100636.32
2018-08-25T19:18:46.816Z,100645.30
2018-08-25T19:21:15.605Z,100646.48
2018-08-25T19:23:44.029Z,100639.67
2018-08-25T19:26:12.388Z,100649.34
2018-08-25T19:28:40.804Z,100645.05
2018-08-25T19:31:09.322Z,100652.48
2018-08-25T19:33:37.783Z,100651.13
2018-08-25T19:36:06.143Z,100657.48
2018-08-25T19:38:34.612Z,100661.17
2018-08-25T19:41:03.049Z,100659.64
2018-08-25T19:43:31.547Z,100657.94
2018-08-25T19:45:59.937Z,100662.85
2018-08-25T19:48:28.316Z,100654.67
2018-08-25T19:50:56.684Z,100659.22
2018-08-25T19:53:25.165Z,100662.39
2018-08-25T19:55:53.555Z,100658.33
2018-08-25T19:58:21.933Z,100661.75
2018-08-25T20:00:50.306Z,100665.31
2018-08-25T20:03:18.739Z,100666.27
2018-08-25T20:05:47.197Z,100668.41
2018-08-25T20:08:15.560Z,100668.41
2018-08-25T20:10:43.921Z,100678.37
2018-08-25T20:13:12.270Z,100679.84
2018-08-25T20:15:40.867Z,100691.33
2018-08-25T20:18:09.366Z,100695.66
2018-08-25T20:20:37.870Z,100696.44
2018-08-25T20:23:06.477Z,100699.14
2018-08-25T20:25:34.945Z,100694.53
2018-08-25T20:28:03.551Z,100701.19
2018-08-25T20:30:31.993Z,100703.81
2018-08-25T20:33:00.411Z,100707.50
2018-08-25T20:35:28.848Z,100702.84
2018-08-25T20:37:59.108Z,100707.39
2018-08-25T20:40:27.553Z,100704.80
2018-08-25T20:42:56.054Z,100706.82
2018-08-25T20:45:24.472Z,100709.71
2018-08-25T20:47:52.895Z,100718.27
2018-08-25T20:50:21.273Z,100729.68
2018-08-25T20:52:49.756Z,100740.72
2018-08-25T20:55:18.124Z,100742.41
2018-08-25T20:57:46.501Z,100748.69
2018-08-25T21:00:14.866Z,100754.19
2018-08-25T21:02:43.260Z,100755.45
2018-08-25T21:05:11.650Z,100752.37
2018-08-25T21:07:39.992Z,100754.77
2018-08-25T21:10:08.767Z,100761.63
2018-08-25T21:12:38.902Z,100762.01
2018-08-25T21:15:07.656Z,100768.27
2018-08-25T21:17:36.156Z,100776.34
2018-08-25T21:20:04.550Z,100780.05
2018-08-25T21:22:32.913Z,100770.96
2018-08-25T21:25:01.281Z,100779.36
2018-08-25T21:27:29.655Z,100780.99
2018-08-25T21:36:58.276Z,100784.82
2018-08-25T21:39:26.639Z,100786.76
2018-08-25T21:41:55.023Z,100793.09
2018-08-25T21:44:23.391Z,100795.70
2018-08-25T21:46:51.817Z,100789.91
2018-08-25T21:49:20.226Z,100788.77
2018-08-25T21:51:48.576Z,100795.04
2018-08-25T21:54:17.048Z,100790.98
2018-08-25T21:56:45.413Z,100791.34
2018-08-25T21:59:13.802Z,100794.45
2018-08-25T22:01:42.973Z,100794.83
2018-08-25T22:04:12.527Z,100796.84
2018-08-25T22:06:40.930Z,100801.55
2018-08-25T22:09:11.452Z,100800.20
2018-08-25T22:11:40.036Z,100806.92
2018-08-25T22:14:08.375Z,100810.59
2018-08-25T22:16:36.756Z,100811.84
2018-08-25T22:19:05.441Z,100812.49
2018-08-25T22:21:33.870Z,100810.94
2018-08-25T22:24:02.278Z,100806.13
2018-08-25T22:26:30.639Z,100814.77
2018-08-25T22:28:59.052Z,100816.50
2018-08-25T22:31:27.436Z,100817.09
2018-08-25T22:33:55.814Z,100823.73
2018-08-25T22:36:24.207Z,100823.42
2018-08-25T22:38:52.570Z,100825.25
2018-08-25T22:41:21.301Z,100829.09
2018-08-25T22:43:49.691Z,100829.09
2018-08-25T22:46:18.092Z,100841.12
2018-08-25T22:48:46.575Z,100837.62
2018-08-25T22:51:15.032Z,100839.94
2018-08-25T22:53:43.918Z,100846.30
2018-08-25T22:56:12.261Z,100843.93
2018-08-25T22:58:40.815Z,100845.59
2018-08-25T23:01:09.227Z,100843.55
2018-08-25T23:03:37.626Z,100847.59
2018-08-25T23:06:06.312Z,100851.48
2018-08-25T23:08:34.793Z,100849.49
2018-08-25T23:11:03.836Z,100848.89
2018-08-25T23:13:32.236Z,100853.42
2018-08-25T23:16:00.624Z,100852.84
2018-08-25T23:18:29.023Z,100858.40
2018-08-25T23:20:57.934Z,100860.78
2018-08-25T23:23:26.290Z,100861.14
2018-08-25T23:25:54.782Z,100861.52
2018-08-25T23:28:23.137Z,100865.25
2018-08-25T23:30:52.045Z,100865.73
2018-08-25T23:33:21.161Z,100864.80
2018-08-25T23:35:49.524Z,100867.63
2018-08-25T23:38:17.950Z,100867.41
2018-08-25T23:40:46.346Z,100866.95
2018-08-25T23:43:14.712Z,100871.00
2018-08-25T23:45:43.436Z,100872.77
2018-08-25T23:48:11.877Z,100871.20
2018-08-25T23:50:40.175Z,100873.47
2018-08-25T23:53:08.514Z,100872.55
2018-08-25T23:55:36.851Z,100877.94
2018-08-25T23:58:05.236Z,100872.41
